메인 페이지
METAR-TAF:

METAR-TAF

공항 :

Hutchinson, 캔자스, 미국

위도: 38-04-05N, 경도: 097-51-38W, 고도: 470m

현재 날씨관측

예보는 1 시간 2분 전, 05:52시(UTC)에 발표되었습니다.
15kt, 순간 최대 풍속 23kt
온도 -4°C
습도 93%
기압 1027 hPa
시정: 16.1km
고도 700ft 상공 흐림

METAR: KHUT 180552Z AUTO 01015G23KT 10SM OVC007 M04/M05 A3033 RMK AO2 SLP278 T10441050 11017 21044 400611044 50003

시각: 00:54 (06:54 UTC)

예보

예보는 1 시간 21분 전, 05:33시(UTC)에 발표되었습니다.
예보 대상 시간: 18일 06시부터 19일 06시까지 (UTC)
12kt, 순간 최대 풍속 24kt
시정: 10km
고도 900ft 상공 흐림
일시적
18일 06시부터 18일 09시까지 (UTC)
시정: 8.0km
(약한) 결빙, 이슬비, 박무
18일 0900시부터 (UTC)
13kt
시정: 10km
고도 1200ft 상공 흐림
18일 1200시부터 (UTC)
9kt
시정: 10km
고도 2500ft 상공 구름 많음
18일 1500시부터 (UTC)
8kt
시정: 10km
고도 3500ft 상공 구름 많음
18일 1700시부터 (UTC)
8kt
시정: 10km
고도 8000ft 상공 구름 많음
18일 2000시부터 (UTC)
여러 방향의 바람 3kt
시정: 10km
고도 12000ft 상공 구름 보통

TAF: KHUT 180533Z 1806/1906 36012G24KT P6SM OVC009 TEMPO 1806/1809 5SM -FZDZ BR FM180900 36013KT P6SM OVC012 FM181200 36009KT P6SM BKN025 FM181500 36008KT P6SM BKN035 FM181700 36008KT P6SM BKN080 FM182000 VRB03KT P6SM SCT120

4,000개 이상의 공항 관측 자료 및 예보 (METAR 및 TAF 보고).

지도상에서 검색 가능한 기상관측소가 노란 점과 빨간 점으로 표시되어 있습니다.

기상관측소 명을 보려면 표시 위로 마우스를 이동하세요.

날씨 관측과 예보를 보려면 클릭하세요.

지도 변경 : 확대하려면 엑스 표시가 있는 녹색 버튼, 축소하려면 빼기 표시가 있는 녹색 버튼, 다음 페이지의 지도를 보려면 녹색 화살표를 클릭하세요.


METAR-TAF: